sensor_id;sensor_type;location;lat;lon;timestamp;pressure;altitude;pressure_sealevel;temperature;humidity
79527;BME280;68974;47.754;-3.364;2024-03-23T00:55:41;102139.69;;;8.17;74.76
79527;BME280;68974;47.754;-3.364;2024-03-23T00:58:07;102133.03;;;8.13;74.60
79527;BME280;68974;47.754;-3.364;2024-03-23T01:00:33;102146.72;;;8.13;74.86
79527;BME280;68974;47.754;-3.364;2024-03-23T01:02:58;102138.50;;;8.13;74.74
79527;BME280;68974;47.754;-3.364;2024-03-23T01:05:24;102141.44;;;8.11;75.08
79527;BME280;68974;47.754;-3.364;2024-03-23T01:07:49;102146.13;;;8.11;74.97
79527;BME280;68974;47.754;-3.364;2024-03-23T01:10:15;102147.91;;;8.17;74.46
79527;BME280;68974;47.754;-3.364;2024-03-23T01:12:40;102154.00;;;8.19;74.59
79527;BME280;68974;47.754;-3.364;2024-03-23T01:15:06;102147.75;;;8.12;74.48
79527;BME280;68974;47.754;-3.364;2024-03-23T01:17:31;102154.22;;;8.17;74.50
79527;BME280;68974;47.754;-3.364;2024-03-23T01:19:57;102147.03;;;8.05;74.45
79527;BME280;68974;47.754;-3.364;2024-03-23T01:22:22;102156.38;;;7.97;74.26
79527;BME280;68974;47.754;-3.364;2024-03-23T01:24:48;102143.78;;;7.96;74.56
79527;BME280;68974;47.754;-3.364;2024-03-23T01:27:13;102142.94;;;7.96;74.92
79527;BME280;68974;47.754;-3.364;2024-03-23T01:29:39;102144.75;;;7.83;74.64
79527;BME280;68974;47.754;-3.364;2024-03-23T01:32:05;102149.63;;;8.00;74.16
79527;BME280;68974;47.754;-3.364;2024-03-23T01:34:31;102151.44;;;7.88;74.19
79527;BME280;68974;47.754;-3.364;2024-03-23T01:36:56;102145.97;;;7.88;74.16
79527;BME280;68974;47.754;-3.364;2024-03-23T01:39:22;102144.75;;;7.83;74.16
79527;BME280;68974;47.754;-3.364;2024-03-23T01:41:47;102142.19;;;7.89;74.03
79527;BME280;68974;47.754;-3.364;2024-03-23T01:44:12;102141.25;;;7.95;73.49
79527;BME280;68974;47.754;-3.364;2024-03-23T01:46:38;102143.38;;;7.93;74.00
79527;BME280;68974;47.754;-3.364;2024-03-23T01:49:07;102146.91;;;7.81;74.21
79527;BME280;68974;47.754;-3.364;2024-03-23T01:51:33;102140.19;;;7.77;74.14
79527;BME280;68974;47.754;-3.364;2024-03-23T01:54:00;102153.13;;;7.70;74.26
79527;BME280;68974;47.754;-3.364;2024-03-23T01:56:34;102142.34;;;7.75;74.09
79527;BME280;68974;47.754;-3.364;2024-03-23T01:59:04;102140.19;;;7.77;74.15
79527;BME280;68974;47.754;-3.364;2024-03-23T02:01:30;102136.63;;;7.95;72.95
79527;BME280;68974;47.754;-3.364;2024-03-23T02:03:56;102143.38;;;7.93;73.26
79527;BME280;68974;47.754;-3.364;2024-03-23T02:06:22;102145.97;;;7.88;74.16
79527;BME280;68974;47.754;-3.364;2024-03-23T02:08:49;102150.22;;;7.83;73.50
79527;BME280;68974;47.754;-3.364;2024-03-23T02:11:14;102140.19;;;7.77;73.25
79527;BME280;68974;47.754;-3.364;2024-03-23T02:13:40;102143.25;;;7.69;73.81
79527;BME280;68974;47.754;-3.364;2024-03-23T02:16:06;102141.13;;;7.71;73.88
79527;BME280;68974;47.754;-3.364;2024-03-23T02:18:32;102144.38;;;7.80;73.61
79527;BME280;68974;47.754;-3.364;2024-03-23T02:20:58;102145.53;;;7.91;72.90
79527;BME280;68974;47.754;-3.364;2024-03-23T02:23:23;102148.25;;;7.91;73.07
79527;BME280;68974;47.754;-3.364;2024-03-23T02:25:50;102146.44;;;7.84;73.38
79527;BME280;68974;47.754;-3.364;2024-03-23T02:28:16;102139.28;;;7.83;73.38
79527;BME280;68974;47.754;-3.364;2024-03-23T02:30:42;102147.34;;;7.78;73.28
79527;BME280;68974;47.754;-3.364;2024-03-23T02:33:07;102144.91;;;7.89;73.82
79527;BME280;68974;47.754;-3.364;2024-03-23T02:35:33;102143.56;;;7.79;73.58
79527;BME280;68974;47.754;-3.364;2024-03-23T02:37:59;102152.06;;;7.71;74.37
79527;BME280;68974;47.754;-3.364;2024-03-23T02:40:24;102150.84;;;7.67;74.28
79527;BME280;68974;47.754;-3.364;2024-03-23T02:42:50;102155.19;;;7.75;74.04
79527;BME280;68974;47.754;-3.364;2024-03-23T02:45:15;102155.19;;;7.75;74.03
79527;BME280;68974;47.754;-3.364;2024-03-23T02:47:41;102155.25;;;7.68;73.76
79527;BME280;68974;47.754;-3.364;2024-03-23T02:50:07;102157.13;;;7.68;74.27
79527;BME280;68974;47.754;-3.364;2024-03-23T02:52:32;102146.44;;;7.66;74.54
79527;BME280;68974;47.754;-3.364;2024-03-23T02:54:58;102151.59;;;7.74;74.62
79527;BME280;68974;47.754;-3.364;2024-03-23T02:57:23;102146.50;;;7.78;74.39
79527;BME280;68974;47.754;-3.364;2024-03-23T02:59:49;102141.13;;;7.71;73.95
79527;BME280;68974;47.754;-3.364;2024-03-23T03:02:15;102132.47;;;7.74;74.04
79527;BME280;68974;47.754;-3.364;2024-03-23T03:04:41;102140.66;;;7.74;74.34
79527;BME280;68974;47.754;-3.364;2024-03-23T03:07:06;102141.88;;;7.78;73.71
79527;BME280;68974;47.754;-3.364;2024-03-23T03:09:32;102131.84;;;7.72;74.12
79527;BME280;68974;47.754;-3.364;2024-03-23T03:11:58;102136.03;;;7.75;73.85
79527;BME280;68974;47.754;-3.364;2024-03-23T03:14:23;102139.69;;;7.69;74.23
79527;BME280;68974;47.754;-3.364;2024-03-23T03:16:49;102151.13;;;7.77;74.32
79527;BME280;68974;47.754;-3.364;2024-03-23T03:19:14;102142.50;;;7.62;74.57
79527;BME280;68974;47.754;-3.364;2024-03-23T03:21:42;102148.88;;;7.56;74.60
79527;BME280;68974;47.754;-3.364;2024-03-23T03:24:07;102143.41;;;7.56;74.62
79527;BME280;68974;47.754;-3.364;2024-03-23T03:26:33;102148.88;;;7.56;74.23
79527;BME280;68974;47.754;-3.364;2024-03-23T03:28:58;102153.41;;;7.44;74.00
79527;BME280;68974;47.754;-3.364;2024-03-23T03:31:24;102158.03;;;7.44;74.63
79527;BME280;68974;47.754;-3.364;2024-03-23T03:33:50;102151.75;;;7.61;74.16
79527;BME280;68974;47.754;-3.364;2024-03-23T03:36:16;102156.03;;;7.57;74.30
79527;BME280;68974;47.754;-3.364;2024-03-23T03:38:41;102170.59;;;7.51;74.28
79527;BME280;68974;47.754;-3.364;2024-03-23T03:41:07;102151.47;;;7.51;74.24
79527;BME280;68974;47.754;-3.364;2024-03-23T03:43:33;102158.66;;;7.46;74.55
79527;BME280;68974;47.754;-3.364;2024-03-23T03:46:00;102165.47;;;7.36;74.23
79527;BME280;68974;47.754;-3.364;2024-03-23T03:48:26;102167.97;;;7.38;73.90
79527;BME280;68974;47.754;-3.364;2024-03-23T03:50:52;102157.88;;;7.38;74.16
79527;BME280;68974;47.754;-3.364;2024-03-23T03:53:18;102162.22;;;7.46;73.86
79527;BME280;68974;47.754;-3.364;2024-03-23T03:55:43;102163.28;;;7.45;73.92
79527;BME280;68974;47.754;-3.364;2024-03-23T03:58:09;102159.34;;;7.41;73.64
79527;BME280;68974;47.754;-3.364;2024-03-23T04:00:34;102154.16;;;7.33;74.28
79527;BME280;68974;47.754;-3.364;2024-03-23T04:03:01;102157.97;;;7.32;74.18
79527;BME280;68974;47.754;-3.364;2024-03-23T04:05:26;102151.56;;;7.38;73.70
79527;BME280;68974;47.754;-3.364;2024-03-23T04:07:52;102144.63;;;7.42;73.27
79527;BME280;68974;47.754;-3.364;2024-03-23T04:10:17;102125.84;;;7.46;73.73
79527;BME280;68974;47.754;-3.364;2024-03-23T04:12:43;102128.88;;;7.37;74.07
79527;BME280;68974;47.754;-3.364;2024-03-23T04:15:09;102147.03;;;7.32;74.13
79527;BME280;68974;47.754;-3.364;2024-03-23T04:17:35;102137.00;;;7.26;73.86
79527;BME280;68974;47.754;-3.364;2024-03-23T04:20:01;102153.09;;;7.34;74.04
79527;BME280;68974;47.754;-3.364;2024-03-23T04:22:28;102149.31;;;7.35;73.45
79527;BME280;68974;47.754;-3.364;2024-03-23T04:24:56;102151.72;;;7.25;73.35
79527;BME280;68974;47.754;-3.364;2024-03-23T04:27:23;102140.63;;;7.38;72.29
79527;BME280;68974;47.754;-3.364;2024-03-23T04:29:52;102135.56;;;7.42;72.38
79527;BME280;68974;47.754;-3.364;2024-03-23T04:32:18;102137.25;;;7.43;72.80
79527;BME280;68974;47.754;-3.364;2024-03-23T04:34:44;102139.88;;;7.31;72.94
79527;BME280;68974;47.754;-3.364;2024-03-23T04:37:11;102147.19;;;7.37;73.43
79527;BME280;68974;47.754;-3.364;2024-03-23T04:39:37;102146.09;;;7.38;73.03
79527;BME280;68974;47.754;-3.364;2024-03-23T04:42:03;102133.63;;;7.24;72.73
79527;BME280;68974;47.754;-3.364;2024-03-23T04:44:28;102146.63;;;7.28;73.49
79527;BME280;68974;47.754;-3.364;2024-03-23T04:46:54;102156.41;;;7.18;73.75
79527;BME280;68974;47.754;-3.364;2024-03-23T04:49:19;102149.31;;;7.10;74.08
79527;BME280;68974;47.754;-3.364;2024-03-23T04:51:45;102147.13;;;7.19;73.79
79527;BME280;68974;47.754;-3.364;2024-03-23T04:54:15;102153.91;;;7.16;74.18
79527;BME280;68974;47.754;-3.364;2024-03-23T04:56:40;102158.47;;;7.22;73.44
79527;BME280;68974;47.754;-3.364;2024-03-23T04:59:06;102155.50;;;7.24;73.95
79527;BME280;68974;47.754;-3.364;2024-03-23T05:01:32;102163.53;;;7.19;74.15
79527;BME280;68974;47.754;-3.364;2024-03-23T05:03:57;102158.53;;;7.16;74.62
79527;BME280;68974;47.754;-3.364;2024-03-23T05:06:24;102156.84;;;7.15;74.43
79527;BME280;68974;47.754;-3.364;2024-03-23T05:08:49;102158.53;;;7.16;74.00
79527;BME280;68974;47.754;-3.364;2024-03-23T05:11:15;102165.03;;;7.15;74.55
79527;BME280;68974;47.754;-3.364;2024-03-23T05:13:41;102165.66;;;7.17;74.43
79527;BME280;68974;47.754;-3.364;2024-03-23T05:16:07;102162.72;;;7.18;74.48
79527;BME280;68974;47.754;-3.364;2024-03-23T05:18:34;102171.50;;;7.20;74.84
79527;BME280;68974;47.754;-3.364;2024-03-23T05:21:00;102166.88;;;7.21;75.03
79527;BME280;68974;47.754;-3.364;2024-03-23T05:23:26;102163.09;;;7.22;75.17
79527;BME280;68974;47.754;-3.364;2024-03-23T05:25:52;102168.94;;;7.25;74.54
79527;BME280;68974;47.754;-3.364;2024-03-23T05:28:18;102176.84;;;7.33;74.52
79527;BME280;68974;47.754;-3.364;2024-03-23T05:30:43;102170.56;;;7.33;74.47
79527;BME280;68974;47.754;-3.364;2024-03-23T05:33:09;102164.31;;;7.26;74.83
79527;BME280;68974;47.754;-3.364;2024-03-23T05:35:34;102160.41;;;7.15;75.18
79527;BME280;68974;47.754;-3.364;2024-03-23T05:38:00;102163.38;;;7.14;75.10
79527;BME280;68974;47.754;-3.364;2024-03-23T05:40:28;102161.41;;;7.21;75.28
79527;BME280;68974;47.754;-3.364;2024-03-23T05:42:54;102149.88;;;7.19;74.68
79527;BME280;68974;47.754;-3.364;2024-03-23T05:45:21;102160.63;;;7.14;75.47
79527;BME280;68974;47.754;-3.364;2024-03-23T05:47:48;102167.34;;;7.18;75.34
79527;BME280;68974;47.754;-3.364;2024-03-23T05:50:13;102163.53;;;7.19;75.42
79527;BME280;68974;47.754;-3.364;2024-03-23T05:52:39;102173.88;;;7.17;75.57
79527;BME280;68974;47.754;-3.364;2024-03-23T05:55:05;102169.84;;;6.94;75.84
79527;BME280;68974;47.754;-3.364;2024-03-23T05:57:31;102166.06;;;6.95;75.95
79527;BME280;68974;47.754;-3.364;2024-03-23T05:59:57;102167.44;;;7.05;75.58
79527;BME280;68974;47.754;-3.364;2024-03-23T06:02:23;102164.28;;;7.08;76.16
79527;BME280;68974;47.754;-3.364;2024-03-23T06:04:48;102158.97;;;7.13;76.30
79527;BME280;68974;47.754;-3.364;2024-03-23T06:07:14;102167.19;;;7.13;75.70
79527;BME280;68974;47.754;-3.364;2024-03-23T06:09:43;102158.47;;;6.97;75.62
79527;BME280;68974;47.754;-3.364;2024-03-23T06:12:08;102163.88;;;7.04;76.24
79527;BME280;68974;47.754;-3.364;2024-03-23T06:14:34;102160.31;;;7.04;76.10
79527;BME280;68974;47.754;-3.364;2024-03-23T06:17:00;102162.78;;;7.12;75.78
79527;BME280;68974;47.754;-3.364;2024-03-23T06:19:27;102155.41;;;7.12;76.35
79527;BME280;68974;47.754;-3.364;2024-03-23T06:21:56;102151.47;;;7.08;76.06
79527;BME280;68974;47.754;-3.364;2024-03-23T06:24:22;102153.09;;;7.09;75.79
79527;BME280;68974;47.754;-3.364;2024-03-23T06:26:47;102152.59;;;7.19;76.07
79527;BME280;68974;47.754;-3.364;2024-03-23T06:29:13;102163.31;;;7.20;75.96
79527;BME280;68974;47.754;-3.364;2024-03-23T06:31:38;102159.31;;;7.23;75.91
79527;BME280;68974;47.754;-3.364;2024-03-23T06:34:04;102165.22;;;7.20;75.80
79527;BME280;68974;47.754;-3.364;2024-03-23T06:36:30;102171.28;;;7.22;75.69
79527;BME280;68974;47.754;-3.364;2024-03-23T06:38:56;102165.53;;;7.30;75.22
79527;BME280;68974;47.754;-3.364;2024-03-23T06:41:22;102165.16;;;7.26;75.61
79527;BME280;68974;47.754;-3.364;2024-03-23T06:43:47;102165.09;;;7.33;75.72
79527;BME280;68974;47.754;-3.364;2024-03-23T06:46:13;102168.75;;;7.45;75.44
79527;BME280;68974;47.754;-3.364;2024-03-23T06:48:38;102160.25;;;7.53;74.92
79527;BME280;68974;47.754;-3.364;2024-03-23T06:51:04;102157.66;;;7.58;75.16
79527;BME280;68974;47.754;-3.364;2024-03-23T06:53:29;102174.38;;;7.68;74.84
79527;BME280;68974;47.754;-3.364;2024-03-23T06:55:55;102180.25;;;7.72;74.58
79527;BME280;68974;47.754;-3.364;2024-03-23T06:58:24;102176.38;;;7.79;74.10
79527;BME280;68974;47.754;-3.364;2024-03-23T07:00:50;102182.63;;;7.87;74.19
79527;BME280;68974;47.754;-3.364;2024-03-23T07:03:19;102169.06;;;7.92;74.40
79527;BME280;68974;47.754;-3.364;2024-03-23T07:05:45;102177.69;;;7.95;73.55
79527;BME280;68974;47.754;-3.364;2024-03-23T07:08:11;102175.47;;;8.04;73.51
79527;BME280;68974;47.754;-3.364;2024-03-23T07:10:39;102169.66;;;8.12;73.35
79527;BME280;68974;47.754;-3.364;2024-03-23T07:13:04;102176.25;;;8.22;72.97
79527;BME280;68974;47.754;-3.364;2024-03-23T07:15:30;102177.06;;;8.30;72.99
79527;BME280;68974;47.754;-3.364;2024-03-23T07:17:55;102174.69;;;8.33;72.70
79527;BME280;68974;47.754;-3.364;2024-03-23T07:20:21;102176.66;;;8.44;72.01
79527;BME280;68974;47.754;-3.364;2024-03-23T07:22:46;102185.22;;;8.48;71.75
79527;BME280;68974;47.754;-3.364;2024-03-23T07:25:15;102183.59;;;8.58;71.89
79527;BME280;68974;47.754;-3.364;2024-03-23T07:27:40;102174.69;;;8.63;71.00
79527;BME280;68974;47.754;-3.364;2024-03-23T07:30:06;102179.59;;;8.73;71.19
79527;BME280;68974;47.754;-3.364;2024-03-23T07:32:34;102188.09;;;8.83;71.54
79527;BME280;68974;47.754;-3.364;2024-03-23T07:34:59;102175.22;;;8.95;70.31
79527;BME280;68974;47.754;-3.364;2024-03-23T07:37:25;102182.16;;;8.97;70.89
79527;BME280;68974;47.754;-3.364;2024-03-23T07:39:51;102180.97;;;9.05;70.00
79527;BME280;68974;47.754;-3.364;2024-03-23T07:42:16;102160.97;;;9.16;69.93
79527;BME280;68974;47.754;-3.364;2024-03-23T07:44:42;102163.47;;;9.41;69.44
79527;BME280;68974;47.754;-3.364;2024-03-23T07:47:07;102162.84;;;9.74;69.18
79527;BME280;68974;47.754;-3.364;2024-03-23T07:49:32;102165.59;;;9.85;67.67
79527;BME280;68974;47.754;-3.364;2024-03-23T07:51:58;102160.94;;;9.86;67.53
79527;BME280;68974;47.754;-3.364;2024-03-23T07:54:23;102157.78;;;9.94;67.73
79527;BME280;68974;47.754;-3.364;2024-03-23T07:56:49;102164.34;;;9.93;68.03
79527;BME280;68974;47.754;-3.364;2024-03-23T07:59:14;102147.78;;;9.88;68.70
79527;BME280;68974;47.754;-3.364;2024-03-23T08:01:40;102150.38;;;10.06;67.50
79527;BME280;68974;47.754;-3.364;2024-03-23T08:04:05;102151.44;;;10.05;67.61
79527;BME280;68974;47.754;-3.364;2024-03-23T08:06:31;102154.28;;;10.10;67.65
79527;BME280;68974;47.754;-3.364;2024-03-23T08:08:57;102142.59;;;10.15;67.55
79527;BME280;68974;47.754;-3.364;2024-03-23T08:11:30;102138.72;;;10.27;66.72
79527;BME280;68974;47.754;-3.364;2024-03-23T08:13:56;102141.69;;;10.37;65.31
79527;BME280;68974;47.754;-3.364;2024-03-23T08:16:22;102145.84;;;11.18;64.31
79527;BME280;68974;47.754;-3.364;2024-03-23T08:18:48;102152.84;;;12.25;60.22
79527;BME280;68974;47.754;-3.364;2024-03-23T08:21:13;102144.84;;;13.09;57.30
79527;BME280;68974;47.754;-3.364;2024-03-23T08:23:39;102137.19;;;13.16;56.62
79527;BME280;68974;47.754;-3.364;2024-03-23T08:26:06;102150.25;;;13.67;55.40
79527;BME280;68974;47.754;-3.364;2024-03-23T08:28:32;102148.84;;;14.22;53.03
79527;BME280;68974;47.754;-3.364;2024-03-23T08:31:00;102148.41;;;14.91;50.85
79527;BME280;68974;47.754;-3.364;2024-03-23T08:33:26;102147.31;;;14.97;49.69
79527;BME280;68974;47.754;-3.364;2024-03-23T08:35:59;102157.81;;;15.60;48.12
79527;BME280;68974;47.754;-3.364;2024-03-23T08:38:26;102141.88;;;16.07;46.98
79527;BME280;68974;47.754;-3.364;2024-03-23T08:41:09;102147.50;;;15.86;46.59
79527;BME280;68974;47.754;-3.364;2024-03-23T08:43:41;102151.13;;;15.77;46.48
79527;BME280;68974;47.754;-3.364;2024-03-23T08:46:13;102155.03;;;15.45;46.63
79527;BME280;68974;47.754;-3.364;2024-03-23T08:48:42;102155.56;;;15.83;45.30
79527;BME280;68974;47.754;-3.364;2024-03-23T08:51:12;102156.41;;;15.78;45.91
79527;BME280;68974;47.754;-3.364;2024-03-23T08:53:38;102159.19;;;14.62;47.71
79527;BME280;68974;47.754;-3.364;2024-03-23T08:56:05;102168.06;;;14.74;48.25
79527;BME280;68974;47.754;-3.364;2024-03-23T08:58:34;102168.81;;;15.96;45.23
79527;BME280;68974;47.754;-3.364;2024-03-23T09:03:29;102165.72;;;16.62;41.72
79527;BME280;68974;47.754;-3.364;2024-03-23T09:05:55;102153.75;;;17.05;41.03
79527;BME280;68974;47.754;-3.364;2024-03-23T09:08:21;102164.16;;;17.23;41.01
79527;BME280;68974;47.754;-3.364;2024-03-23T09:10:47;102170.59;;;17.48;40.25
79527;BME280;68974;47.754;-3.364;2024-03-23T09:13:13;102167.69;;;18.10;38.61
79527;BME280;68974;47.754;-3.364;2024-03-23T09:15:49;102157.03;;;18.17;38.47
79527;BME280;68974;47.754;-3.364;2024-03-23T09:18:15;102156.88;;;18.28;38.27
79527;BME280;68974;47.754;-3.364;2024-03-23T09:20:41;102163.91;;;18.01;37.55
79527;BME280;68974;47.754;-3.364;2024-03-23T09:23:06;102152.84;;;18.39;38.14
79527;BME280;68974;47.754;-3.364;2024-03-23T09:25:32;102163.72;;;18.59;38.05
79527;BME280;68974;47.754;-3.364;2024-03-23T09:27:58;102149.44;;;18.66;38.55
79527;BME280;68974;47.754;-3.364;2024-03-23T09:30:23;102147.75;;;17.51;38.87
79527;BME280;68974;47.754;-3.364;2024-03-23T09:32:49;102152.06;;;18.14;38.61
79527;BME280;68974;47.754;-3.364;2024-03-23T09:35:14;102160.59;;;17.99;38.16
79527;BME280;68974;47.754;-3.364;2024-03-23T09:37:40;102150.06;;;18.39;38.14
79527;BME280;68974;47.754;-3.364;2024-03-23T09:40:09;102152.06;;;18.14;38.13
79527;BME280;68974;47.754;-3.364;2024-03-23T09:42:35;102156.72;;;18.80;36.90
79527;BME280;68974;47.754;-3.364;2024-03-23T09:45:01;102159.03;;;18.92;37.10
79527;BME280;68974;47.754;-3.364;2024-03-23T09:47:27;102157.00;;;18.97;36.37
79527;BME280;68974;47.754;-3.364;2024-03-23T09:49:52;102155.63;;;17.96;38.93
79527;BME280;68974;47.754;-3.364;2024-03-23T09:52:18;102161.81;;;17.36;39.87
79527;BME280;68974;47.754;-3.364;2024-03-23T09:54:44;102144.88;;;18.32;38.37
79527;BME280;68974;47.754;-3.364;2024-03-23T09:57:10;102142.81;;;18.80;37.18
79527;BME280;68974;47.754;-3.364;2024-03-23T09:59:35;102142.59;;;18.15;37.85
79527;BME280;68974;47.754;-3.364;2024-03-23T10:02:01;102145.72;;;17.32;39.01
79527;BME280;68974;47.754;-3.364;2024-03-23T10:04:41;102150.69;;;16.68;40.97
79527;BME280;68974;47.754;-3.364;2024-03-23T10:07:18;102152.47;;;15.89;43.69
79527;BME280;68974;47.754;-3.364;2024-03-23T10:09:44;102140.69;;;15.33;44.69
79527;BME280;68974;47.754;-3.364;2024-03-23T10:14:37;102140.25;;;13.61;47.79
79527;BME280;68974;47.754;-3.364;2024-03-23T10:17:20;102134.31;;;14.87;46.04
79527;BME280;68974;47.754;-3.364;2024-03-23T10:19:50;102128.59;;;16.47;42.71
79527;BME280;68974;47.754;-3.364;2024-03-23T10:22:20;102115.41;;;18.50;39.76
79527;BME280;68974;47.754;-3.364;2024-03-23T10:24:46;102105.03;;;19.07;38.08
79527;BME280;68974;47.754;-3.364;2024-03-23T10:27:15;102111.66;;;18.41;37.64
79527;BME280;68974;47.754;-3.364;2024-03-23T10:29:43;102113.66;;;18.35;36.59
79527;BME280;68974;47.754;-3.364;2024-03-23T10:32:13;102110.47;;;17.57;37.76
79527;BME280;68974;47.754;-3.364;2024-03-23T10:34:39;102101.28;;;17.32;38.76
79527;BME280;68974;47.754;-3.364;2024-03-23T10:37:06;102119.81;;;16.35;40.48
79527;BME280;68974;47.754;-3.364;2024-03-23T10:39:41;102132.63;;;15.42;44.78
79527;BME280;68974;47.754;-3.364;2024-03-23T10:42:08;102141.22;;;14.59;47.31
79527;BME280;68974;47.754;-3.364;2024-03-23T10:44:34;102159.59;;;12.92;55.52
79527;BME280;68974;47.754;-3.364;2024-03-23T10:47:03;102159.19;;;12.52;57.60
79527;BME280;68974;47.754;-3.364;2024-03-23T10:49:33;102161.78;;;12.37;61.62
79527;BME280;68974;47.754;-3.364;2024-03-23T10:52:00;102139.31;;;13.09;61.46
79527;BME280;68974;47.754;-3.364;2024-03-23T10:54:27;102123.22;;;13.27;58.02
79527;BME280;68974;47.754;-3.364;2024-03-23T10:57:13;102126.72;;;14.17;54.60
79527;BME280;68974;47.754;-3.364;2024-03-23T10:59:40;102107.56;;;15.97;50.98
79527;BME280;68974;47.754;-3.364;2024-03-23T11:02:06;102103.19;;;17.37;46.48
79527;BME280;68974;47.754;-3.364;2024-03-23T11:04:35;102098.47;;;18.28;43.97
79527;BME280;68974;47.754;-3.364;2024-03-23T11:07:01;102071.78;;;19.97;39.89
79527;BME280;68974;47.754;-3.364;2024-03-23T11:09:38;102078.13;;;21.28;37.35
79527;BME280;68974;47.754;-3.364;2024-03-23T11:17:25;102073.28;;;17.29;43.99
79527;BME280;68974;47.754;-3.364;2024-03-23T11:19:55;102076.72;;;16.87;44.46
79527;BME280;68974;47.754;-3.364;2024-03-23T11:22:45;102058.28;;;15.84;47.17
79527;BME280;68974;47.754;-3.364;2024-03-23T11:25:24;102058.34;;;16.18;47.16
79527;BME280;68974;47.754;-3.364;2024-03-23T11:27:51;102045.50;;;17.53;42.63
79527;BME280;68974;47.754;-3.364;2024-03-23T11:32:46;102040.38;;;16.55;45.07
79527;BME280;68974;47.754;-3.364;2024-03-23T11:35:34;102038.38;;;16.26;46.14
79527;BME280;68974;47.754;-3.364;2024-03-23T11:38:12;102028.03;;;17.28;42.43
79527;BME280;68974;47.754;-3.364;2024-03-23T11:40:43;102025.72;;;16.83;42.24
79527;BME280;68974;47.754;-3.364;2024-03-23T11:43:10;102039.69;;;15.90;46.05
79527;BME280;68974;47.754;-3.364;2024-03-23T11:45:46;102041.25;;;15.37;50.92
79527;BME280;68974;47.754;-3.364;2024-03-23T11:48:12;102041.38;;;14.76;53.27
79527;BME280;68974;47.754;-3.364;2024-03-23T11:50:42;102026.81;;;16.09;50.06
79527;BME280;68974;47.754;-3.364;2024-03-23T11:53:18;102027.59;;;17.16;44.91
79527;BME280;68974;47.754;-3.364;2024-03-23T11:55:51;102021.50;;;18.23;41.82
79527;BME280;68974;47.754;-3.364;2024-03-23T11:58:18;102010.16;;;19.71;37.35
79527;BME280;68974;47.754;-3.364;2024-03-23T12:00:51;102017.06;;;20.59;32.43
79527;BME280;68974;47.754;-3.364;2024-03-23T12:03:18;102004.00;;;20.46;32.85
79527;BME280;68974;47.754;-3.364;2024-03-23T12:05:50;102007.38;;;20.88;32.94
79527;BME280;68974;47.754;-3.364;2024-03-23T12:10:48;101998.38;;;21.70;32.81
79527;BME280;68974;47.754;-3.364;2024-03-23T12:13:18;101992.94;;;21.82;33.15
79527;BME280;68974;47.754;-3.364;2024-03-23T12:15:45;102004.66;;;21.84;33.57
79527;BME280;68974;47.754;-3.364;2024-03-23T12:18:11;102008.63;;;20.15;35.85
79527;BME280;68974;47.754;-3.364;2024-03-23T12:20:37;102023.44;;;17.85;41.49
79527;BME280;68974;47.754;-3.364;2024-03-23T12:23:11;102026.56;;;16.06;48.17
79527;BME280;68974;47.754;-3.364;2024-03-23T12:25:38;102030.00;;;14.93;50.48
79527;BME280;68974;47.754;-3.364;2024-03-23T12:28:04;102028.66;;;14.65;52.16
79527;BME280;68974;47.754;-3.364;2024-03-23T12:30:40;102020.56;;;14.18;51.68
79527;BME280;68974;47.754;-3.364;2024-03-23T12:33:06;102010.16;;;14.60;50.86
79527;BME280;68974;47.754;-3.364;2024-03-23T12:35:32;102013.94;;;15.10;49.01
79527;BME280;68974;47.754;-3.364;2024-03-23T12:37:57;101998.91;;;15.31;46.61
79527;BME280;68974;47.754;-3.364;2024-03-23T12:40:23;101996.13;;;15.36;44.90
79527;BME280;68974;47.754;-3.364;2024-03-23T12:42:48;101991.34;;;16.11;44.46
79527;BME280;68974;47.754;-3.364;2024-03-23T12:45:14;101989.88;;;18.00;40.67
79527;BME280;68974;47.754;-3.364;2024-03-23T12:47:40;101986.94;;;19.08;38.91
79527;BME280;68974;47.754;-3.364;2024-03-23T12:50:05;101971.94;;;19.85;37.12
79527;BME280;68974;47.754;-3.364;2024-03-23T12:52:32;101956.75;;;20.81;36.15
79527;BME280;68974;47.754;-3.364;2024-03-23T12:54:58;101958.84;;;21.06;36.20
79527;BME280;68974;47.754;-3.364;2024-03-23T12:57:26;101948.25;;;22.16;34.36
79527;BME280;68974;47.754;-3.364;2024-03-23T12:59:53;101947.69;;;21.80;34.70
79527;BME280;68974;47.754;-3.364;2024-03-23T13:02:22;101945.09;;;20.12;38.65
79527;BME280;68974;47.754;-3.364;2024-03-23T13:04:53;101934.78;;;20.57;37.32
79527;BME280;68974;47.754;-3.364;2024-03-23T13:07:20;101934.31;;;21.03;36.09
79527;BME280;68974;47.754;-3.364;2024-03-23T13:09:46;101936.28;;;18.78;39.59
79527;BME280;68974;47.754;-3.364;2024-03-23T13:12:12;101929.22;;;18.53;40.28
79527;BME280;68974;47.754;-3.364;2024-03-23T13:14:38;101934.84;;;17.60;40.01
79527;BME280;68974;47.754;-3.364;2024-03-23T13:17:04;101929.72;;;16.19;43.08
79527;BME280;68974;47.754;-3.364;2024-03-23T13:19:30;101932.22;;;15.82;44.96
79527;BME280;68974;47.754;-3.364;2024-03-23T13:21:59;101941.28;;;14.54;47.49
79527;BME280;68974;47.754;-3.364;2024-03-23T13:24:25;101938.78;;;13.86;51.44
79527;BME280;68974;47.754;-3.364;2024-03-23T13:26:52;101939.84;;;13.70;50.60
79527;BME280;68974;47.754;-3.364;2024-03-23T13:29:18;101940.44;;;14.28;48.74
79527;BME280;68974;47.754;-3.364;2024-03-23T13:31:45;101933.75;;;14.90;48.61
79527;BME280;68974;47.754;-3.364;2024-03-23T13:34:10;101927.63;;;14.98;48.91
79527;BME280;68974;47.754;-3.364;2024-03-23T13:36:36;101952.09;;;14.45;51.38
79527;BME280;68974;47.754;-3.364;2024-03-23T13:39:04;101949.19;;;13.59;54.24
79527;BME280;68974;47.754;-3.364;2024-03-23T13:41:40;101939.25;;;13.53;55.89
79527;BME280;68974;47.754;-3.364;2024-03-23T13:44:10;101931.31;;;14.12;53.79
79527;BME280;68974;47.754;-3.364;2024-03-23T13:46:37;101927.94;;;14.86;48.66
79527;BME280;68974;47.754;-3.364;2024-03-23T13:49:03;101912.97;;;16.34;44.10
79527;BME280;68974;47.754;-3.364;2024-03-23T13:51:28;101909.66;;;17.32;41.27
79527;BME280;68974;47.754;-3.364;2024-03-23T13:53:54;101903.09;;;17.85;39.78